createdAt,value
2018-12-17T00:00:17.834Z,19.40
2018-12-17T00:02:47.707Z,19.40
2018-12-17T00:05:16.939Z,19.40
2018-12-17T00:07:46.967Z,19.40
2018-12-17T00:10:16.240Z,19.40
2018-12-17T00:15:33.708Z,19.40
2018-12-17T00:18:03.437Z,19.40
2018-12-17T00:20:33.346Z,19.40
2018-12-17T00:23:02.652Z,19.40
2018-12-17T00:25:31.925Z,19.40
2018-12-17T00:28:07.957Z,19.40
2018-12-17T00:30:33.060Z,19.40
2018-12-17T00:33:02.455Z,19.40
2018-12-17T00:35:31.835Z,19.40
2018-12-17T00:38:01.518Z,19.40
2018-12-17T00:40:31.020Z,19.40
2018-12-17T00:43:00.806Z,19.40
2018-12-17T00:45:30.493Z,19.40
2018-12-17T00:47:59.781Z,19.40
2018-12-17T00:50:29.053Z,19.40
2018-12-17T00:52:58.390Z,19.40
2018-12-17T00:55:28.107Z,19.40
2018-12-17T00:57:57.417Z,19.40
2018-12-17T01:00:26.746Z,19.40
2018-12-17T01:02:56.132Z,19.40
2018-12-17T01:05:25.405Z,19.40
2018-12-17T01:07:54.699Z,19.40
2018-12-17T01:10:24.602Z,19.40
2018-12-17T01:12:55.540Z,19.40
2018-12-17T01:15:24.775Z,19.40
2018-12-17T01:17:54.415Z,19.40
2018-12-17T01:20:24.096Z,19.30
2018-12-17T01:22:53.617Z,19.40
2018-12-17T01:25:23.287Z,19.40
2018-12-17T01:27:52.829Z,19.40
2018-12-17T01:30:22.567Z,19.40
2018-12-17T01:32:51.946Z,19.30
2018-12-17T01:35:21.552Z,19.30
2018-12-17T01:37:51.022Z,19.40
2018-12-17T01:40:20.726Z,19.30
2018-12-17T01:42:50.475Z,19.40
2018-12-17T01:45:19.879Z,19.40
2018-12-17T01:47:49.480Z,19.30
2018-12-17T01:50:19.178Z,19.40
2018-12-17T01:52:48.369Z,19.30
2018-12-17T01:55:18.031Z,19.30
2018-12-17T01:57:47.630Z,19.30
2018-12-17T02:00:16.993Z,19.40
2018-12-17T02:02:46.863Z,19.40
2018-12-17T02:05:16.192Z,19.40
2018-12-17T02:07:45.402Z,19.30
2018-12-17T02:10:14.594Z,19.40
2018-12-17T02:12:44.278Z,19.40
2018-12-17T02:15:13.982Z,19.40
2018-12-17T02:17:43.308Z,19.40
2018-12-17T02:20:12.595Z,19.40
2018-12-17T02:22:41.775Z,19.30
2018-12-17T02:25:11.305Z,19.30
2018-12-17T02:27:40.593Z,19.30
2018-12-17T02:30:11.027Z,19.40
2018-12-17T02:32:40.259Z,19.30
2018-12-17T02:35:09.570Z,19.40
2018-12-17T02:37:39.200Z,19.40
2018-12-17T02:40:08.426Z,19.40
2018-12-17T02:42:38.130Z,19.40
2018-12-17T02:45:07.395Z,19.30
2018-12-17T02:47:36.871Z,19.30
2018-12-17T02:50:07.208Z,19.40
2018-12-17T02:52:36.532Z,19.40
2018-12-17T02:55:07.169Z,19.30
2018-12-17T02:57:36.641Z,19.40
2018-12-17T03:00:07.766Z,19.30
2018-12-17T03:02:37.423Z,19.30
2018-12-17T03:05:07.909Z,19.30
2018-12-17T03:07:37.149Z,19.40
2018-12-17T03:10:06.858Z,19.30
2018-12-17T03:12:36.458Z,19.30
2018-12-17T03:15:06.239Z,19.30
2018-12-17T03:17:35.597Z,19.30
2018-12-17T03:20:05.296Z,19.30
2018-12-17T03:22:35.001Z,19.30
2018-12-17T03:25:04.255Z,19.30
2018-12-17T03:27:34.106Z,19.30
2018-12-17T03:30:03.506Z,19.30
2018-12-17T03:32:33.248Z,19.30
2018-12-17T03:35:03.086Z,19.30
2018-12-17T03:37:32.903Z,19.30
2018-12-17T03:40:02.956Z,19.30
2018-12-17T03:42:32.186Z,19.30
2018-12-17T03:45:01.394Z,19.30
2018-12-17T03:47:30.649Z,19.30
2018-12-17T03:50:00.213Z,19.30
2018-12-17T03:52:29.846Z,19.30
2018-12-17T03:54:59.079Z,19.30
2018-12-17T03:57:28.305Z,19.30
2018-12-17T03:59:58.122Z,19.30
2018-12-17T04:02:27.855Z,19.30
2018-12-17T04:04:57.852Z,19.30
2018-12-17T04:07:27.390Z,19.30
2018-12-17T04:09:57.016Z,19.30
2018-12-17T04:12:26.861Z,19.30
2018-12-17T04:14:56.197Z,19.30
2018-12-17T04:17:25.521Z,19.30
2018-12-17T04:19:56.801Z,19.30
2018-12-17T04:22:26.721Z,19.30
2018-12-17T04:24:56.043Z,19.30
2018-12-17T04:27:25.923Z,19.30
2018-12-17T04:29:55.570Z,19.30
2018-12-17T04:32:24.858Z,19.30
2018-12-17T04:34:54.818Z,19.30
2018-12-17T04:37:24.508Z,19.30
2018-12-17T04:39:53.763Z,19.30
2018-12-17T04:42:23.768Z,19.30
2018-12-17T04:44:53.358Z,19.30
2018-12-17T04:47:22.620Z,19.30
2018-12-17T04:49:53.235Z,19.30
2018-12-17T04:52:23.077Z,19.30
2018-12-17T04:54:52.755Z,19.30
2018-12-17T04:57:22.059Z,19.30
2018-12-17T04:59:51.730Z,19.30
2018-12-17T05:02:21.054Z,19.30
2018-12-17T05:04:50.303Z,19.30
2018-12-17T05:07:19.582Z,19.30
2018-12-17T05:09:48.938Z,19.30
2018-12-17T05:12:18.239Z,19.30
2018-12-17T05:14:47.570Z,19.30
2018-12-17T05:17:17.613Z,19.30
2018-12-17T05:19:46.913Z,19.30
2018-12-17T05:22:16.478Z,19.30
2018-12-17T05:24:46.029Z,19.30
2018-12-17T05:27:16.556Z,19.30
2018-12-17T05:29:46.302Z,19.30
2018-12-17T05:32:15.510Z,19.20
2018-12-17T05:34:45.029Z,19.30
2018-12-17T05:37:14.300Z,19.30
2018-12-17T05:39:43.900Z,19.30
2018-12-17T05:42:13.124Z,19.20
2018-12-17T05:44:42.649Z,19.20
2018-12-17T05:47:12.254Z,19.20
2018-12-17T05:49:41.719Z,19.20
2018-12-17T05:52:11.140Z,19.20
2018-12-17T05:54:40.859Z,19.20
2018-12-17T05:57:10.502Z,19.20
2018-12-17T05:59:39.818Z,19.20
2018-12-17T06:02:09.385Z,19.20
2018-12-17T06:04:39.041Z,19.20
2018-12-17T06:07:08.549Z,19.20
2018-12-17T06:09:37.957Z,19.20
2018-12-17T06:12:08.001Z,19.30
2018-12-17T06:14:37.293Z,19.20
2018-12-17T06:17:06.598Z,19.30
2018-12-17T06:19:36.294Z,19.30
2018-12-17T06:22:05.925Z,19.30
2018-12-17T06:24:35.208Z,19.30
2018-12-17T06:27:04.860Z,19.30
2018-12-17T06:29:35.665Z,19.30
2018-12-17T06:32:05.086Z,19.30
2018-12-17T06:34:34.344Z,19.30
2018-12-17T06:37:03.595Z,19.20
2018-12-17T06:39:33.095Z,19.20
2018-12-17T06:42:02.364Z,19.30
2018-12-17T06:44:31.623Z,19.30
2018-12-17T06:47:01.012Z,19.30
2018-12-17T06:49:30.506Z,19.30
2018-12-17T06:52:00.386Z,19.20
2018-12-17T06:54:29.748Z,19.20
2018-12-17T06:56:59.075Z,19.20
2018-12-17T06:59:28.417Z,19.20
2018-12-17T07:01:57.773Z,19.20
2018-12-17T07:04:27.355Z,19.20
2018-12-17T07:06:56.587Z,19.20
2018-12-17T07:09:25.911Z,19.20
2018-12-17T07:11:55.270Z,19.20
2018-12-17T07:14:25.008Z,19.20
2018-12-17T07:16:54.193Z,19.20
2018-12-17T07:19:23.438Z,19.20
2018-12-17T07:21:53.331Z,19.20
2018-12-17T07:24:23.117Z,19.10
2018-12-17T07:26:52.441Z,19.20
2018-12-17T07:29:21.672Z,19.20
2018-12-17T07:31:51.340Z,19.20
2018-12-17T07:34:20.901Z,19.20
2018-12-17T07:36:50.112Z,19.10
2018-12-17T07:39:19.553Z,19.10
2018-12-17T07:41:49.361Z,19.20
2018-12-17T07:44:19.258Z,19.10
2018-12-17T07:46:48.534Z,19.10
2018-12-17T07:49:17.930Z,19.10
2018-12-17T07:51:47.800Z,19.10
2018-12-17T07:54:17.010Z,19.10
2018-12-17T07:56:46.320Z,19.10
2018-12-17T07:59:15.646Z,19.10
2018-12-17T08:01:45.108Z,19.10
2018-12-17T08:04:15.034Z,19.10
2018-12-17T08:06:44.765Z,19.10
2018-12-17T08:09:14.128Z,19.10
2018-12-17T08:11:43.397Z,19.10
2018-12-17T08:14:12.663Z,19.10
2018-12-17T08:16:41.961Z,19.10
2018-12-17T08:19:11.210Z,19.10
2018-12-17T08:21:40.837Z,19.10
2018-12-17T08:24:10.413Z,19.10
2018-12-17T08:26:40.291Z,19.10
2018-12-17T08:29:09.654Z,19.10
2018-12-17T08:31:39.671Z,19.10
2018-12-17T08:34:08.953Z,19.10
2018-12-17T08:36:40.223Z,19.10
2018-12-17T08:39:09.439Z,19.00
2018-12-17T08:41:38.895Z,19.10
2018-12-17T08:44:08.106Z,19.10
2018-12-17T08:46:37.693Z,19.10
2018-12-17T08:49:06.924Z,19.10
2018-12-17T08:51:36.437Z,19.00
2018-12-17T08:54:06.279Z,19.00
2018-12-17T08:56:35.653Z,19.00
2018-12-17T08:59:05.008Z,19.00
2018-12-17T09:01:34.637Z,19.00
2018-12-17T09:04:04.492Z,19.00
2018-12-17T09:06:33.797Z,19.00
2018-12-17T09:09:03.075Z,19.00
2018-12-17T09:11:32.321Z,19.00
2018-12-17T09:14:02.184Z,19.00
2018-12-17T09:16:31.735Z,19.00
2018-12-17T09:19:01.527Z,19.00
2018-12-17T09:21:30.763Z,19.00
2018-12-17T09:24:00.678Z,19.00
2018-12-17T09:26:30.047Z,19.00
2018-12-17T09:28:59.383Z,19.00
2018-12-17T09:31:29.240Z,19.00
2018-12-17T09:33:58.543Z,19.00
2018-12-17T09:36:28.098Z,19.00
2018-12-17T09:38:57.351Z,19.00
2018-12-17T09:41:26.938Z,19.00
2018-12-17T09:43:57.057Z,19.00
2018-12-17T09:46:26.350Z,19.00
2018-12-17T09:48:56.065Z,19.00
2018-12-17T09:51:25.446Z,19.00
2018-12-17T09:53:55.305Z,19.00
2018-12-17T09:56:24.543Z,19.00
2018-12-17T09:58:54.968Z,19.00
2018-12-17T10:01:24.697Z,19.00
2018-12-17T10:03:54.032Z,19.00
2018-12-17T10:06:23.861Z,19.00
2018-12-17T10:08:53.088Z,19.00
2018-12-17T10:11:22.500Z,19.00
2018-12-17T10:13:51.703Z,19.00
2018-12-17T10:16:21.418Z,19.00
2018-12-17T10:18:51.185Z,19.00
2018-12-17T10:21:20.593Z,18.90
2018-12-17T10:23:50.099Z,18.90
2018-12-17T10:26:19.582Z,19.00
2018-12-17T10:28:49.635Z,19.00
2018-12-17T10:31:19.540Z,18.90
2018-12-17T10:33:48.750Z,18.90
2018-12-17T10:36:18.939Z,18.90
2018-12-17T10:38:48.187Z,18.90
2018-12-17T10:41:17.404Z,18.90
2018-12-17T10:43:46.633Z,18.90
2018-12-17T10:46:16.169Z,18.90
2018-12-17T10:48:45.486Z,18.90
2018-12-17T10:51:14.737Z,18.90
2018-12-17T10:53:43.988Z,18.90
2018-12-17T10:56:13.714Z,18.90
2018-12-17T10:58:42.981Z,18.90
2018-12-17T11:04:33.755Z,18.90
2018-12-17T11:07:03.688Z,18.90
2018-12-17T11:09:33.169Z,18.90
2018-12-17T11:12:02.813Z,18.90
2018-12-17T11:14:32.563Z,18.90
2018-12-17T11:17:03.280Z,18.90
2018-12-17T11:19:33.023Z,18.90
2018-12-17T11:22:02.811Z,18.90
2018-12-17T11:24:32.154Z,18.90
2018-12-17T11:27:01.411Z,18.90
2018-12-17T11:29:30.734Z,18.90
2018-12-17T11:32:00.604Z,18.90
2018-12-17T11:34:30.305Z,18.90
2018-12-17T11:36:59.651Z,18.90
2018-12-17T11:39:28.978Z,18.90
2018-12-17T11:41:58.799Z,18.90
2018-12-17T11:44:28.336Z,18.90
2018-12-17T11:46:58.059Z,18.80
2018-12-17T11:49:27.250Z,18.90
2018-12-17T11:51:56.454Z,18.90
2018-12-17T11:54:25.729Z,18.90
2018-12-17T11:57:04.163Z,18.90
2018-12-17T11:59:33.383Z,18.80
2018-12-17T12:02:02.771Z,18.80
2018-12-17T12:04:32.585Z,18.80
2018-12-17T12:07:01.985Z,18.80
2018-12-17T12:09:33.813Z,18.80
2018-12-17T12:12:03.142Z,18.80
2018-12-17T12:14:34.250Z,18.80
2018-12-17T12:17:03.647Z,18.80
2018-12-17T12:19:33.006Z,18.80
2018-12-17T12:22:02.798Z,18.80
2018-12-17T12:24:32.065Z,18.80
2018-12-17T12:27:01.796Z,18.80
2018-12-17T12:29:31.097Z,18.80
2018-12-17T12:32:00.413Z,18.80
2018-12-17T12:34:30.205Z,18.80
2018-12-17T12:36:59.782Z,18.80
2018-12-17T12:39:29.371Z,18.80
2018-12-17T12:41:58.738Z,18.80
2018-12-17T12:44:28.400Z,18.80
2018-12-17T12:46:57.699Z,18.80
2018-12-17T12:49:27.725Z,18.80
2018-12-17T12:51:57.138Z,18.80
2018-12-17T12:54:26.338Z,18.80
2018-12-17T12:56:55.801Z,18.80
2018-12-17T12:59:25.162Z,18.80
2018-12-17T13:01:54.740Z,18.70
2018-12-17T13:04:24.082Z,18.70
2018-12-17T13:06:53.366Z,18.70
2018-12-17T13:09:23.008Z,18.70
2018-12-17T13:11:52.303Z,18.70
2018-12-17T13:14:21.652Z,18.70
2018-12-17T13:16:51.439Z,18.70
2018-12-17T13:19:21.388Z,18.70
2018-12-17T13:21:50.926Z,18.70
2018-12-17T13:24:20.134Z,18.70
2018-12-17T13:26:49.975Z,18.70
2018-12-17T13:29:19.224Z,18.70
2018-12-17T13:31:48.669Z,18.70
2018-12-17T13:34:18.302Z,18.70
2018-12-17T13:36:47.651Z,18.60
2018-12-17T13:39:17.251Z,18.60
2018-12-17T13:41:47.037Z,18.60
2018-12-17T13:44:16.857Z,18.60
2018-12-17T13:46:46.167Z,18.60
2018-12-17T13:49:15.467Z,18.60
2018-12-17T13:51:50.444Z,18.60
2018-12-17T13:54:19.787Z,18.60
2018-12-17T13:56:49.455Z,18.60
2018-12-17T13:59:19.364Z,18.60
2018-12-17T14:01:51.637Z,18.50
2018-12-17T14:04:20.625Z,18.60
2018-12-17T14:06:50.220Z,18.60
2018-12-17T14:09:19.905Z,18.60
2018-12-17T14:11:49.449Z,18.60
2018-12-17T14:14:18.686Z,18.60
2018-12-17T14:16:53.582Z,18.60
2018-12-17T14:19:25.270Z,18.70
2018-12-17T14:21:59.809Z,18.80
2018-12-17T14:24:29.114Z,18.90
2018-12-17T14:26:58.458Z,18.90
2018-12-17T14:29:28.352Z,18.90
2018-12-17T14:31:57.584Z,18.90
2018-12-17T14:34:27.269Z,18.90
2018-12-17T14:36:57.059Z,18.80
2018-12-17T14:39:26.327Z,18.80
2018-12-17T14:41:56.234Z,18.80
2018-12-17T14:44:30.826Z,18.70
2018-12-17T14:47:00.441Z,18.70
2018-12-17T14:49:30.297Z,18.80
2018-12-17T14:51:59.616Z,18.70
2018-12-17T14:54:28.858Z,18.70
2018-12-17T14:56:58.186Z,18.70
2018-12-17T14:59:27.669Z,18.70
2018-12-17T15:01:57.043Z,18.70
2018-12-17T15:04:26.313Z,18.70
2018-12-17T15:06:56.452Z,18.70
2018-12-17T15:09:25.840Z,18.70
2018-12-17T15:11:55.532Z,18.70
2018-12-17T15:14:24.840Z,18.70
2018-12-17T15:16:54.442Z,18.70
2018-12-17T15:19:23.684Z,18.60
2018-12-17T15:21:52.989Z,18.70
2018-12-17T15:24:22.215Z,18.80
2018-12-17T15:26:52.004Z,18.90
2018-12-17T15:29:21.605Z,18.90
2018-12-17T15:31:50.901Z,18.90
2018-12-17T15:34:20.202Z,18.80
2018-12-17T15:36:49.581Z,18.80
2018-12-17T15:39:18.959Z,18.80
2018-12-17T15:41:48.165Z,18.80
2018-12-17T15:44:17.512Z,18.80
2018-12-17T15:46:47.057Z,18.80
2018-12-17T15:49:16.410Z,18.80
2018-12-17T15:51:45.874Z,18.80
2018-12-17T15:54:15.136Z,18.70
2018-12-17T15:56:44.837Z,18.70
2018-12-17T15:59:14.461Z,18.70
2018-12-17T16:01:49.919Z,18.70
2018-12-17T16:04:15.521Z,18.70
2018-12-17T16:06:44.943Z,18.70
2018-12-17T16:09:15.146Z,18.80
2018-12-17T16:11:44.453Z,18.80
2018-12-17T16:14:13.748Z,18.70
2018-12-17T16:16:43.016Z,18.80
2018-12-17T16:19:12.276Z,18.70
2018-12-17T16:21:41.587Z,18.70
2018-12-17T16:24:11.048Z,18.70
2018-12-17T16:26:40.436Z,18.70
2018-12-17T16:29:09.678Z,18.80
2018-12-17T16:31:38.991Z,18.70
2018-12-17T16:34:08.802Z,18.80
2018-12-17T16:36:38.116Z,18.80
2018-12-17T16:39:07.545Z,18.80
2018-12-17T16:41:36.753Z,18.80
2018-12-17T16:44:06.217Z,18.80
2018-12-17T16:46:35.701Z,18.80
2018-12-17T16:49:04.968Z,18.80
2018-12-17T16:51:34.284Z,18.80
2018-12-17T16:54:03.504Z,18.80
2018-12-17T16:56:32.918Z,18.80
2018-12-17T16:59:02.160Z,18.80
2018-12-17T17:01:31.465Z,18.80
2018-12-17T17:04:00.879Z,18.80
2018-12-17T17:06:30.232Z,18.80
2018-12-17T17:08:59.518Z,18.80
2018-12-17T17:11:28.877Z,18.80
2018-12-17T17:13:58.165Z,18.80
2018-12-17T17:16:27.532Z,18.80
2018-12-17T17:18:56.761Z,18.80
2018-12-17T17:21:26.726Z,18.90
2018-12-17T17:23:56.090Z,18.90
2018-12-17T17:26:25.335Z,18.90
2018-12-17T17:28:54.530Z,18.90
2018-12-17T17:31:23.790Z,19.00
2018-12-17T17:33:53.027Z,19.00
2018-12-17T17:36:23.124Z,19.00
2018-12-17T17:38:54.429Z,19.00
2018-12-17T17:41:23.806Z,19.00
2018-12-17T17:43:53.020Z,19.00
2018-12-17T17:46:22.352Z,19.00
2018-12-17T17:48:51.692Z,19.00
2018-12-17T17:51:21.056Z,19.00
2018-12-17T17:53:50.449Z,19.00
2018-12-17T17:56:20.943Z,19.10
2018-12-17T17:58:50.653Z,19.10
2018-12-17T18:01:19.884Z,19.10
2018-12-17T18:03:49.726Z,19.10
2018-12-17T18:06:19.208Z,19.10
2018-12-17T18:08:48.430Z,19.10
2018-12-17T18:11:18.155Z,19.20
2018-12-17T18:13:48.513Z,19.20
2018-12-17T18:16:18.123Z,19.20
2018-12-17T18:18:48.139Z,19.20
2018-12-17T18:21:17.476Z,19.20
2018-12-17T18:23:46.706Z,19.20
2018-12-17T18:26:15.950Z,19.20
2018-12-17T18:28:45.185Z,19.30
2018-12-17T18:31:14.528Z,19.30
2018-12-17T18:33:43.783Z,19.30
2018-12-17T18:36:13.066Z,19.30
2018-12-17T18:38:42.649Z,19.30
2018-12-17T18:41:12.349Z,19.40
2018-12-17T18:43:42.349Z,19.30
2018-12-17T18:46:12.055Z,19.30
2018-12-17T18:48:41.677Z,19.40
2018-12-17T18:51:10.955Z,19.40
2018-12-17T18:53:40.882Z,19.40
2018-12-17T18:56:10.633Z,19.40
2018-12-17T18:58:40.204Z,19.50
2018-12-17T19:01:09.538Z,19.50
2018-12-17T19:03:38.804Z,19.50
2018-12-17T19:06:08.232Z,19.50
2018-12-17T19:08:37.717Z,19.50
2018-12-17T19:11:07.094Z,19.50
2018-12-17T19:13:36.813Z,19.50
2018-12-17T19:16:06.273Z,19.60
2018-12-17T19:18:35.645Z,19.60
2018-12-17T19:21:04.996Z,19.60
2018-12-17T19:23:34.248Z,19.60
2018-12-17T19:26:03.653Z,19.60
2018-12-17T19:28:32.938Z,19.70
2018-12-17T19:31:02.226Z,19.70
2018-12-17T19:33:31.475Z,19.70
2018-12-17T19:36:00.701Z,19.70
2018-12-17T19:38:30.027Z,19.70
2018-12-17T19:40:59.364Z,19.70
2018-12-17T19:43:28.659Z,19.70
2018-12-17T19:45:58.101Z,19.80
2018-12-17T19:48:27.488Z,19.80
2018-12-17T19:50:56.733Z,19.80
2018-12-17T19:53:25.990Z,19.80
2018-12-17T19:55:55.560Z,19.90
2018-12-17T19:58:24.801Z,19.90
2018-12-17T20:00:54.753Z,19.90
2018-12-17T20:03:24.178Z,19.90
2018-12-17T20:05:53.458Z,19.90
2018-12-17T20:08:22.919Z,19.90
2018-12-17T20:10:52.357Z,19.90
2018-12-17T20:13:21.617Z,19.90
2018-12-17T20:15:51.023Z,20.00
2018-12-17T20:18:20.310Z,20.00
2018-12-17T20:20:49.719Z,20.00
2018-12-17T20:23:19.015Z,20.10
2018-12-17T20:25:48.444Z,20.00
2018-12-17T20:28:17.777Z,20.10
2018-12-17T20:30:47.161Z,20.10
2018-12-17T20:33:16.406Z,20.20
2018-12-17T20:35:45.718Z,20.40
2018-12-17T20:38:16.177Z,20.50
2018-12-17T20:40:45.478Z,20.50
2018-12-17T20:43:15.070Z,20.60
2018-12-17T20:45:44.353Z,20.70
2018-12-17T20:48:13.627Z,20.80
2018-12-17T20:50:42.913Z,20.80
2018-12-17T20:53:12.944Z,20.90
2018-12-17T20:55:42.505Z,21.00
2018-12-17T20:58:12.784Z,21.10
2018-12-17T21:00:42.323Z,21.10
2018-12-17T21:03:11.673Z,21.20
2018-12-17T21:05:41.835Z,21.30
2018-12-17T21:08:11.195Z,21.40
2018-12-17T21:10:40.612Z,21.40
2018-12-17T21:13:10.071Z,21.40
2018-12-17T21:15:39.422Z,21.50
2018-12-17T21:18:08.766Z,21.60
2018-12-17T21:20:38.015Z,21.60
2018-12-17T21:23:07.729Z,21.60
2018-12-17T21:25:37.080Z,21.60
2018-12-17T21:28:06.323Z,21.70
2018-12-17T21:30:35.542Z,21.80
2018-12-17T21:33:06.842Z,21.80
2018-12-17T21:35:36.306Z,21.90
2018-12-17T21:38:05.879Z,22.00
2018-12-17T21:40:35.666Z,22.00
2018-12-17T21:43:04.987Z,22.00
2018-12-17T21:45:34.267Z,22.00
2018-12-17T21:48:03.593Z,22.10
2018-12-17T21:50:32.865Z,22.10
2018-12-17T21:53:02.501Z,22.20
2018-12-17T21:55:31.869Z,22.20
2018-12-17T21:58:01.517Z,22.20
2018-12-17T22:00:31.215Z,22.20
2018-12-17T22:03:00.623Z,22.20
2018-12-17T22:05:30.017Z,22.30
2018-12-17T22:07:59.310Z,22.30
2018-12-17T22:10:30.738Z,22.30
2018-12-17T22:13:01.770Z,22.30
2018-12-17T22:15:31.276Z,22.30
2018-12-17T22:18:00.612Z,22.30
2018-12-17T22:20:30.051Z,22.30
2018-12-17T22:22:59.324Z,22.30
2018-12-17T22:25:28.605Z,22.30
2018-12-17T22:27:57.890Z,22.40
2018-12-17T22:30:27.227Z,22.40
2018-12-17T22:32:56.521Z,22.30
2018-12-17T22:35:25.852Z,22.30
2018-12-17T22:37:55.352Z,22.40
2018-12-17T22:40:24.637Z,22.30
2018-12-17T22:42:53.969Z,22.30
2018-12-17T22:45:23.381Z,22.40
2018-12-17T22:47:52.621Z,22.40
2018-12-17T22:50:21.923Z,22.40
2018-12-17T22:52:51.233Z,22.40
2018-12-17T22:55:21.142Z,22.40
2018-12-17T22:57:50.489Z,22.40
2018-12-17T23:00:20.376Z,22.40
2018-12-17T23:02:49.811Z,22.40
2018-12-17T23:05:19.217Z,22.40
2018-12-17T23:07:48.502Z,22.50
2018-12-17T23:10:29.440Z,22.50
2018-12-17T23:13:09.872Z,22.50
2018-12-17T23:15:50.847Z,22.50
2018-12-17T23:18:20.237Z,22.50
2018-12-17T23:20:49.605Z,22.50
2018-12-17T23:23:19.178Z,22.50
2018-12-17T23:25:48.527Z,22.50
2018-12-17T23:28:17.853Z,22.40
2018-12-17T23:30:47.372Z,22.40
2018-12-17T23:33:16.736Z,22.50
2018-12-17T23:35:46.109Z,22.50
2018-12-17T23:38:15.534Z,22.50
2018-12-17T23:40:44.858Z,22.50
2018-12-17T23:43:14.226Z,22.50
2018-12-17T23:45:43.550Z,22.50
2018-12-17T23:48:12.990Z,22.50
2018-12-17T23:50:42.301Z,22.50
2018-12-17T23:53:11.814Z,22.50
2018-12-17T23:55:41.107Z,22.50
2018-12-17T23:58:10.359Z,22.60
